createdAt,value
2017-06-02T00:00:27.316Z,17.97
2017-06-02T00:01:07.909Z,17.96
2017-06-02T00:01:48.497Z,17.89
2017-06-02T00:02:29.106Z,17.95
2017-06-02T00:03:09.674Z,17.97
2017-06-02T00:03:50.254Z,17.95
2017-06-02T00:04:30.843Z,17.92
2017-06-02T00:05:11.441Z,17.95
2017-06-02T00:05:52.009Z,17.99
2017-06-02T00:06:32.607Z,17.96
2017-06-02T00:07:13.182Z,17.95
2017-06-02T00:07:53.765Z,17.93
2017-06-02T00:08:34.375Z,17.97
2017-06-02T00:09:14.968Z,17.95
2017-06-02T00:09:55.536Z,17.99
2017-06-02T00:10:36.109Z,18
2017-06-02T00:11:16.689Z,18.02
2017-06-02T00:11:57.267Z,18.02
2017-06-02T00:12:37.848Z,17.95
2017-06-02T00:13:18.438Z,17.97
2017-06-02T00:13:59.029Z,17.97
2017-06-02T00:14:39.601Z,18.05
2017-06-02T00:15:20.177Z,18.05
2017-06-02T00:16:00.750Z,18.05
2017-06-02T00:16:41.330Z,18.05
2017-06-02T00:17:21.923Z,18.07
2017-06-02T00:18:02.500Z,18.02
2017-06-02T00:18:43.090Z,18.03
2017-06-02T00:19:23.679Z,18.08
2017-06-02T00:20:04.259Z,18.03
2017-06-02T00:20:44.838Z,18.02
2017-06-02T00:21:25.439Z,18.05
2017-06-02T00:22:06.018Z,17.99
2017-06-02T00:22:46.601Z,18
2017-06-02T00:23:27.196Z,17.96
2017-06-02T00:24:07.768Z,17.96
2017-06-02T00:24:48.358Z,17.9
2017-06-02T00:25:28.944Z,17.93
2017-06-02T00:26:09.525Z,17.9
2017-06-02T00:26:50.097Z,17.93
2017-06-02T00:27:30.682Z,17.95
2017-06-02T00:28:11.257Z,17.78
2017-06-02T00:28:51.841Z,17.78
2017-06-02T00:29:32.417Z,17.78
2017-06-02T00:30:12.987Z,17.78
2017-06-02T00:30:53.557Z,17.71
2017-06-02T00:31:34.135Z,17.71
2017-06-02T00:32:14.706Z,17.72
2017-06-02T00:32:55.271Z,17.7
2017-06-02T00:33:35.863Z,17.71
2017-06-02T00:34:16.439Z,17.64
2017-06-02T00:34:57.015Z,17.63
2017-06-02T00:35:37.615Z,17.63
2017-06-02T00:36:18.188Z,17.63
2017-06-02T00:36:58.763Z,17.63
2017-06-02T00:37:39.342Z,17.7
2017-06-02T00:38:19.930Z,17.63
2017-06-02T00:39:00.509Z,17.7
2017-06-02T00:39:41.090Z,17.64
2017-06-02T00:40:21.678Z,17.74
2017-06-02T00:41:02.254Z,17.72
2017-06-02T00:41:42.826Z,17.75
2017-06-02T00:42:23.394Z,17.78
2017-06-02T00:43:03.977Z,17.79
2017-06-02T00:43:44.558Z,17.78
2017-06-02T00:44:25.151Z,17.79
2017-06-02T00:45:05.738Z,17.74
2017-06-02T00:45:46.319Z,17.81
2017-06-02T00:46:26.890Z,17.77
2017-06-02T00:47:07.457Z,17.77
2017-06-02T00:47:48.029Z,17.84
2017-06-02T00:48:28.620Z,17.87
2017-06-02T00:49:09.276Z,17.87
2017-06-02T00:49:49.864Z,17.81
2017-06-02T00:50:30.435Z,17.72
2017-06-02T00:51:11.014Z,17.87
2017-06-02T00:51:51.600Z,17.89
2017-06-02T00:52:32.189Z,17.93
2017-06-02T00:53:12.771Z,17.93
2017-06-02T00:53:53.342Z,17.93
2017-06-02T00:54:33.908Z,17.93
2017-06-02T00:55:14.477Z,17.92
2017-06-02T00:55:55.063Z,17.95
2017-06-02T00:56:35.640Z,17.96
2017-06-02T00:57:16.217Z,18.02
2017-06-02T00:57:56.799Z,18.03
2017-06-02T00:58:37.371Z,18.02
2017-06-02T00:59:17.914Z,18
2017-06-02T00:59:58.452Z,17.99
2017-06-02T01:00:38.994Z,17.99
2017-06-02T01:01:19.531Z,17.96
2017-06-02T01:02:00.058Z,18
2017-06-02T01:02:40.592Z,18.02
2017-06-02T01:03:21.144Z,17.99
2017-06-02T01:04:01.687Z,18.02
2017-06-02T01:04:42.229Z,17.99
2017-06-02T01:05:22.789Z,18.05
2017-06-02T01:06:03.378Z,17.99
2017-06-02T01:06:43.960Z,18.02
2017-06-02T01:07:24.545Z,18
2017-06-02T01:08:05.111Z,18.02
2017-06-02T01:08:45.683Z,17.99
2017-06-02T01:09:26.258Z,18.02
2017-06-02T01:10:06.820Z,18.05
2017-06-02T01:10:47.369Z,18.03
2017-06-02T01:11:27.915Z,18.02
2017-06-02T01:12:08.451Z,18
2017-06-02T01:12:48.975Z,18.03
2017-06-02T01:13:29.520Z,18.05
2017-06-02T01:14:10.055Z,18.02
2017-06-02T01:14:50.596Z,18.08
2017-06-02T01:15:31.137Z,18.05
2017-06-02T01:16:11.678Z,18.1
2017-06-02T01:16:52.216Z,18.08
2017-06-02T01:17:32.763Z,18.08
2017-06-02T01:18:13.305Z,18.12
2017-06-02T01:18:53.848Z,18.11
2017-06-02T01:19:34.384Z,18.1
2017-06-02T01:20:14.913Z,18.1
2017-06-02T01:20:55.480Z,18.08
2017-06-02T01:21:35.999Z,18.08
2017-06-02T01:22:16.545Z,18.08
2017-06-02T01:22:57.094Z,18.08
2017-06-02T01:23:37.630Z,18.05
2017-06-02T01:24:18.170Z,18.05
2017-06-02T01:24:58.713Z,18.08
2017-06-02T01:25:39.252Z,18.08
2017-06-02T01:26:19.791Z,18.1
2017-06-02T01:27:00.341Z,18.08
2017-06-02T01:27:40.871Z,18.1
2017-06-02T01:28:21.416Z,18.08
2017-06-02T01:29:01.955Z,18.07
2017-06-02T01:29:42.498Z,18
2017-06-02T01:30:23.038Z,18.07
2017-06-02T01:31:03.577Z,17.99
2017-06-02T01:31:44.117Z,17.99
2017-06-02T01:32:24.658Z,17.95
2017-06-02T01:33:05.194Z,18.11
2017-06-02T01:33:45.737Z,17.9
2017-06-02T01:34:26.292Z,18
2017-06-02T01:35:06.840Z,17.95
2017-06-02T01:35:47.381Z,17.96
2017-06-02T01:36:27.924Z,17.93
2017-06-02T01:37:08.515Z,17.95
2017-06-02T01:37:49.040Z,17.95
2017-06-02T01:38:29.579Z,17.9
2017-06-02T01:39:10.133Z,17.96
2017-06-02T01:39:50.669Z,17.93
2017-06-02T01:40:31.203Z,17.95
2017-06-02T01:41:11.748Z,17.95
2017-06-02T01:41:52.312Z,17.96
2017-06-02T01:42:32.830Z,17.9
2017-06-02T01:43:13.363Z,17.9
2017-06-02T01:43:53.903Z,17.95
2017-06-02T01:44:34.444Z,17.95
2017-06-02T01:45:14.972Z,17.92
2017-06-02T01:45:55.513Z,17.93
2017-06-02T01:46:36.058Z,17.92
2017-06-02T01:47:16.597Z,17.81
2017-06-02T01:47:57.143Z,17.93
2017-06-02T01:48:37.687Z,17.93
2017-06-02T01:49:18.214Z,17.87
2017-06-02T01:49:58.751Z,17.9
2017-06-02T01:50:39.297Z,17.9
2017-06-02T01:51:19.898Z,17.93
2017-06-02T01:52:00.448Z,17.93
2017-06-02T01:52:40.991Z,17.89
2017-06-02T01:53:21.530Z,17.79
2017-06-02T01:54:02.062Z,17.79
2017-06-02T01:54:42.609Z,17.81
2017-06-02T01:55:23.151Z,17.74
2017-06-02T01:56:03.697Z,17.77
2017-06-02T01:56:44.234Z,17.78
2017-06-02T01:57:24.781Z,17.75
2017-06-02T01:58:05.329Z,17.79
2017-06-02T01:58:45.873Z,17.78
2017-06-02T01:59:26.419Z,17.77
2017-06-02T02:00:06.963Z,17.7
2017-06-02T02:00:47.508Z,17.75
2017-06-02T02:01:28.053Z,17.72
2017-06-02T02:02:08.595Z,17.74
2017-06-02T02:02:49.137Z,17.74
2017-06-02T02:03:29.675Z,17.71
2017-06-02T02:04:10.213Z,17.71
2017-06-02T02:04:50.771Z,17.7
2017-06-02T02:05:31.287Z,17.64
2017-06-02T02:06:11.825Z,17.56
2017-06-02T02:06:52.367Z,17.59
2017-06-02T02:07:32.921Z,17.56
2017-06-02T02:08:13.461Z,17.49
2017-06-02T02:08:54.005Z,17.54
2017-06-02T02:09:34.535Z,17.52
2017-06-02T02:10:15.070Z,17.48
2017-06-02T02:10:55.613Z,17.41
2017-06-02T02:11:36.162Z,17.4
2017-06-02T02:12:16.701Z,17.34
2017-06-02T02:12:57.248Z,17.34
2017-06-02T02:13:37.784Z,17.28
2017-06-02T02:14:18.327Z,17.28
2017-06-02T02:14:58.872Z,17.25
2017-06-02T02:15:39.478Z,17.31
2017-06-02T02:16:19.957Z,17.3
2017-06-02T02:17:00.485Z,17.22
2017-06-02T02:17:41.028Z,17.22
2017-06-02T02:18:21.568Z,17.28
2017-06-02T02:19:02.112Z,17.22
2017-06-02T02:19:42.662Z,17.3
2017-06-02T02:20:23.212Z,17.21
2017-06-02T02:21:03.753Z,17.18
2017-06-02T02:21:44.285Z,17.18
2017-06-02T02:22:24.828Z,17.19
2017-06-02T02:23:05.375Z,17.21
2017-06-02T02:23:45.912Z,17.18
2017-06-02T02:24:26.456Z,17.15
2017-06-02T02:25:06.996Z,17.19
2017-06-02T02:25:47.549Z,17.06
2017-06-02T02:26:28.081Z,17.11
2017-06-02T02:27:08.623Z,17.12
2017-06-02T02:27:49.156Z,17.08
2017-06-02T02:28:29.694Z,17.07
2017-06-02T02:29:10.229Z,17.07
2017-06-02T02:29:50.768Z,17.04
2017-06-02T02:30:31.305Z,17.03
2017-06-02T02:31:11.844Z,17.06
2017-06-02T02:31:52.383Z,17.04
2017-06-02T02:32:32.933Z,17.12
2017-06-02T02:33:13.473Z,17.06
2017-06-02T02:33:54.018Z,17.03
2017-06-02T02:34:34.588Z,16.98
2017-06-02T02:35:15.108Z,17.08
2017-06-02T02:35:55.673Z,17
2017-06-02T02:36:36.185Z,17
2017-06-02T02:37:16.716Z,16.91
2017-06-02T02:37:57.269Z,16.96
2017-06-02T02:38:37.813Z,16.98
2017-06-02T02:39:18.358Z,16.97
2017-06-02T02:39:58.896Z,16.94
2017-06-02T02:40:39.443Z,16.89
2017-06-02T02:41:19.982Z,16.96
2017-06-02T02:42:00.528Z,16.94
2017-06-02T02:42:41.073Z,16.89
2017-06-02T02:43:21.618Z,16.89
2017-06-02T02:44:02.161Z,16.96
2017-06-02T02:44:42.709Z,16.83
2017-06-02T02:45:23.257Z,16.86
2017-06-02T02:46:03.803Z,16.86
2017-06-02T02:46:44.340Z,16.79
2017-06-02T02:47:24.889Z,16.82
2017-06-02T02:48:05.437Z,16.86
2017-06-02T02:48:45.973Z,16.79
2017-06-02T02:49:26.522Z,16.78
2017-06-02T02:50:07.063Z,16.71
2017-06-02T02:50:47.608Z,16.7
2017-06-02T02:51:28.150Z,16.63
2017-06-02T02:52:08.693Z,16.67
2017-06-02T02:52:49.238Z,16.63
2017-06-02T02:53:29.778Z,16.67
2017-06-02T02:54:10.319Z,16.7
2017-06-02T02:54:50.864Z,16.7
2017-06-02T02:55:31.402Z,16.6
2017-06-02T02:56:11.943Z,16.71
2017-06-02T02:56:52.482Z,16.73
2017-06-02T02:57:33.023Z,16.67
2017-06-02T02:58:13.559Z,16.67
2017-06-02T02:58:54.085Z,16.66
2017-06-02T02:59:34.619Z,16.64
2017-06-02T03:00:15.165Z,16.66
2017-06-02T03:00:55.709Z,16.67
2017-06-02T03:01:36.237Z,16.63
2017-06-02T03:02:16.782Z,16.68
2017-06-02T03:02:57.323Z,16.71
2017-06-02T03:03:37.867Z,16.63
2017-06-02T03:04:18.424Z,16.67
2017-06-02T03:04:58.952Z,16.68
2017-06-02T03:05:39.496Z,16.67
2017-06-02T03:06:20.037Z,16.7
2017-06-02T03:07:00.582Z,16.73
2017-06-02T03:07:41.126Z,16.68
2017-06-02T03:08:21.677Z,16.64
2017-06-02T03:09:02.219Z,16.64
2017-06-02T03:09:42.749Z,16.68
2017-06-02T03:10:23.293Z,16.75
2017-06-02T03:11:03.840Z,16.7
2017-06-02T03:11:44.374Z,16.78
2017-06-02T03:12:24.926Z,16.78
2017-06-02T03:13:05.465Z,16.79
2017-06-02T03:13:46.000Z,16.79
2017-06-02T03:14:26.582Z,16.88
2017-06-02T03:15:07.119Z,16.82
2017-06-02T03:15:47.664Z,16.91
2017-06-02T03:16:28.208Z,16.83
2017-06-02T03:17:08.752Z,16.91
2017-06-02T03:17:49.296Z,16.82
2017-06-02T03:18:29.843Z,16.85
2017-06-02T03:19:10.393Z,16.93
2017-06-02T03:19:50.928Z,16.88
2017-06-02T03:20:31.463Z,16.89
2017-06-02T03:21:12.005Z,16.93
2017-06-02T03:21:52.549Z,16.93
2017-06-02T03:22:33.087Z,16.94
2017-06-02T03:23:13.630Z,16.94
2017-06-02T03:23:54.167Z,16.96
2017-06-02T03:24:34.704Z,16.86
2017-06-02T03:25:15.250Z,16.96
2017-06-02T03:25:55.783Z,16.94
2017-06-02T03:26:36.312Z,16.98
2017-06-02T03:27:16.851Z,17.04
2017-06-02T03:27:57.393Z,17.01
2017-06-02T03:28:37.927Z,16.97
2017-06-02T03:29:18.470Z,17.01
2017-06-02T03:29:59.003Z,17.04
2017-06-02T03:30:39.528Z,17
2017-06-02T03:31:20.068Z,17.04
2017-06-02T03:32:00.712Z,17.07
2017-06-02T03:32:41.259Z,17.06
2017-06-02T03:33:21.798Z,17.07
2017-06-02T03:34:02.338Z,17.07
2017-06-02T03:34:42.893Z,17.03
2017-06-02T03:35:23.427Z,17.07
2017-06-02T03:36:03.978Z,17.22
2017-06-02T03:36:44.524Z,17.15
2017-06-02T03:37:25.067Z,17.19
2017-06-02T03:38:05.616Z,17.18
2017-06-02T03:38:46.161Z,17.26
2017-06-02T03:39:26.702Z,17.26
2017-06-02T03:40:07.248Z,17.23
2017-06-02T03:40:47.789Z,17.28
2017-06-02T03:41:28.340Z,17.25
2017-06-02T03:42:08.882Z,17.18
2017-06-02T03:42:49.437Z,17.21
2017-06-02T03:43:29.951Z,17.22
2017-06-02T03:44:10.489Z,17.22
2017-06-02T03:44:51.034Z,17.25
2017-06-02T03:45:31.632Z,17.36
2017-06-02T03:46:12.164Z,17.3
2017-06-02T03:46:52.702Z,17.25
2017-06-02T03:47:33.251Z,17.26
2017-06-02T03:48:13.798Z,17.26
2017-06-02T03:48:54.348Z,17.28
2017-06-02T03:49:34.922Z,17.3
2017-06-02T03:50:15.455Z,17.36
2017-06-02T03:50:56.008Z,17.31
2017-06-02T03:51:36.554Z,17.4
2017-06-02T03:52:17.098Z,17.36
2017-06-02T03:52:57.638Z,17.4
2017-06-02T03:53:38.182Z,17.33
2017-06-02T03:54:18.733Z,17.44
2017-06-02T03:54:59.283Z,17.37
2017-06-02T03:55:39.833Z,17.46
2017-06-02T03:56:20.380Z,17.43
2017-06-02T03:57:00.915Z,17.43
2017-06-02T03:57:41.447Z,17.51
2017-06-02T03:58:21.991Z,17.41
2017-06-02T03:59:02.536Z,17.48
2017-06-02T03:59:43.091Z,17.49
2017-06-02T04:00:23.648Z,17.51
2017-06-02T04:01:04.235Z,17.46
2017-06-02T04:01:44.776Z,17.44
2017-06-02T04:02:25.350Z,17.52
2017-06-02T04:03:05.889Z,17.46
2017-06-02T04:03:46.435Z,17.49
2017-06-02T04:04:26.969Z,17.46
2017-06-02T04:05:07.508Z,17.41
2017-06-02T04:05:48.050Z,17.48
2017-06-02T04:06:28.596Z,17.46
2017-06-02T04:07:09.131Z,17.48
2017-06-02T04:07:49.674Z,17.37
2017-06-02T04:08:30.220Z,17.48
2017-06-02T04:09:10.774Z,17.43
2017-06-02T04:09:51.351Z,17.52
2017-06-02T04:10:31.862Z,17.48
2017-06-02T04:11:12.406Z,17.43
2017-06-02T04:11:52.947Z,17.46
2017-06-02T04:12:33.493Z,17.41
2017-06-02T04:13:14.021Z,17.4
2017-06-02T04:13:54.561Z,17.48
2017-06-02T04:14:35.098Z,17.44
2017-06-02T04:15:15.646Z,17.43
2017-06-02T04:15:56.188Z,17.38
2017-06-02T04:16:36.730Z,17.49
2017-06-02T04:17:17.285Z,17.43
2017-06-02T04:17:57.834Z,17.43
2017-06-02T04:18:38.385Z,17.43
2017-06-02T04:19:18.936Z,17.44
2017-06-02T04:19:59.485Z,17.43
2017-06-02T04:20:41.039Z,17.51
2017-06-02T04:21:21.618Z,17.41
2017-06-02T04:22:02.152Z,17.38
2017-06-02T04:22:42.695Z,17.44
2017-06-02T04:23:23.244Z,17.41
2017-06-02T04:24:03.786Z,17.43
2017-06-02T04:24:44.344Z,17.43
2017-06-02T04:25:24.889Z,17.43
2017-06-02T04:26:05.440Z,17.43
2017-06-02T04:26:45.990Z,17.43
2017-06-02T04:27:26.541Z,17.43
2017-06-02T04:28:07.090Z,17.44
2017-06-02T04:28:47.597Z,17.43
2017-06-02T04:29:28.149Z,17.41
2017-06-02T04:30:08.709Z,17.49
2017-06-02T04:30:49.245Z,17.54
2017-06-02T04:31:29.777Z,17.52
2017-06-02T04:32:10.341Z,17.48
2017-06-02T04:32:50.905Z,17.48
2017-06-02T04:33:31.451Z,17.54
2017-06-02T04:34:12.011Z,17.51
2017-06-02T04:34:52.560Z,17.52
2017-06-02T04:35:33.087Z,17.54
2017-06-02T04:36:13.687Z,17.56
2017-06-02T04:36:54.228Z,17.55
2017-06-02T04:37:34.757Z,17.59
2017-06-02T04:38:15.283Z,17.64
2017-06-02T04:38:55.838Z,17.63
2017-06-02T04:39:36.379Z,17.62
2017-06-02T04:40:16.915Z,17.74
2017-06-02T04:40:57.455Z,17.68
2017-06-02T04:41:38.014Z,17.72
2017-06-02T04:42:18.562Z,17.78
2017-06-02T04:42:59.076Z,17.77
2017-06-02T04:43:39.651Z,17.77
2017-06-02T04:44:20.184Z,17.79
2017-06-02T04:45:00.737Z,17.84
2017-06-02T04:45:41.279Z,17.93
2017-06-02T04:46:21.838Z,17.93
2017-06-02T04:47:02.399Z,17.95
2017-06-02T04:47:42.949Z,17.99
2017-06-02T04:48:23.489Z,17.99
2017-06-02T04:49:04.033Z,17.99
2017-06-02T04:49:44.582Z,17.95
2017-06-02T04:50:25.133Z,18.02
2017-06-02T04:51:05.677Z,17.9
2017-06-02T04:51:46.276Z,18
2017-06-02T04:52:26.814Z,17.96
2017-06-02T04:53:07.362Z,18.03
2017-06-02T04:53:47.916Z,17.96
2017-06-02T04:54:28.440Z,18.03
2017-06-02T04:55:08.994Z,17.96
2017-06-02T04:55:49.526Z,17.99
2017-06-02T04:56:30.074Z,17.95
2017-06-02T04:57:10.638Z,18.05
2017-06-02T04:57:51.171Z,17.99
2017-06-02T04:58:31.723Z,18
2017-06-02T04:59:12.274Z,17.99
2017-06-02T04:59:52.825Z,18.02
2017-06-02T05:00:33.373Z,18.02
2017-06-02T05:01:13.895Z,17.96
2017-06-02T05:01:54.440Z,17.97
2017-06-02T05:02:34.992Z,18
2017-06-02T05:03:15.539Z,17.99
2017-06-02T05:03:56.092Z,18.05
2017-06-02T05:04:36.617Z,18.12
2017-06-02T05:05:17.152Z,18.05
2017-06-02T05:05:57.700Z,18.08
2017-06-02T05:06:38.250Z,18.08
2017-06-02T05:07:18.993Z,18.12
2017-06-02T05:07:59.548Z,18.11
2017-06-02T05:08:40.844Z,18.17
2017-06-02T05:09:21.380Z,18.18
2017-06-02T05:10:01.908Z,18.14
2017-06-02T05:10:42.477Z,18.14
2017-06-02T05:11:23.014Z,18.1
2017-06-02T05:12:03.556Z,18.1
2017-06-02T05:12:44.094Z,18.17
2017-06-02T05:13:24.653Z,18.12
2017-06-02T05:14:05.227Z,18.15
2017-06-02T05:14:45.742Z,18.25
2017-06-02T05:15:26.282Z,18.29
2017-06-02T05:16:06.830Z,18.26
2017-06-02T05:16:47.369Z,18.35
2017-06-02T05:17:27.990Z,18.39
2017-06-02T05:18:08.530Z,18.37
2017-06-02T05:18:49.084Z,18.29
2017-06-02T05:19:29.640Z,18.45
2017-06-02T05:20:10.190Z,18.42
2017-06-02T05:20:50.726Z,18.57
2017-06-02T05:23:10.076Z,18.65
2017-06-02T05:23:50.677Z,18.6
2017-06-02T05:24:31.212Z,18.65
2017-06-02T05:25:11.845Z,18.66
2017-06-02T05:25:52.381Z,18.72
2017-06-02T05:26:32.928Z,18.65
2017-06-02T05:27:13.577Z,18.73
2017-06-02T05:27:54.117Z,18.78
2017-06-02T05:28:34.664Z,18.76
2017-06-02T05:29:15.211Z,18.76
2017-06-02T05:29:55.756Z,18.78
2017-06-02T05:30:36.297Z,18.76
2017-06-02T05:31:16.830Z,18.8
2017-06-02T05:31:57.372Z,18.82
2017-06-02T05:32:37.913Z,18.8
2017-06-02T05:33:18.457Z,18.78
2017-06-02T05:33:59.009Z,18.8
2017-06-02T05:34:39.543Z,18.8
2017-06-02T05:35:20.091Z,18.81
2017-06-02T05:36:00.638Z,18.8
2017-06-02T05:36:41.179Z,18.8
2017-06-02T05:37:21.718Z,18.82
2017-06-02T05:38:02.266Z,18.81
2017-06-02T05:38:42.802Z,18.92
2017-06-02T05:39:23.334Z,18.88
2017-06-02T05:40:03.879Z,18.84
2017-06-02T05:40:44.421Z,18.95
2017-06-02T05:41:24.943Z,18.94
2017-06-02T05:42:05.483Z,18.94
2017-06-02T05:42:46.025Z,18.98
2017-06-02T05:43:26.559Z,18.92
2017-06-02T05:44:07.085Z,19.02
2017-06-02T05:44:47.634Z,19.11
2017-06-02T05:45:28.174Z,19.02
2017-06-02T05:46:08.715Z,19.04
2017-06-02T05:46:49.266Z,19.06
2017-06-02T05:47:29.802Z,19.04
2017-06-02T05:48:10.356Z,19.02
2017-06-02T05:48:50.909Z,19.04
2017-06-02T05:49:31.447Z,19.08
2017-06-02T05:50:12.051Z,19.06
2017-06-02T05:50:52.594Z,19.07
2017-06-02T05:51:33.132Z,19.02
2017-06-02T05:52:13.672Z,19.06
2017-06-02T05:52:54.212Z,19
2017-06-02T05:53:34.761Z,19.02
2017-06-02T05:54:15.296Z,19.07
2017-06-02T05:54:56.003Z,19.07
2017-06-02T05:55:36.720Z,19.07
2017-06-02T05:56:17.271Z,18.99
2017-06-02T05:56:57.815Z,18.88
2017-06-02T05:57:38.355Z,18.99
2017-06-02T05:58:18.895Z,18.95
2017-06-02T05:58:59.446Z,18.94
2017-06-02T05:59:39.978Z,18.92
2017-06-02T06:00:20.516Z,18.88
2017-06-02T06:01:01.059Z,18.88
2017-06-02T06:01:41.592Z,18.88
2017-06-02T06:02:22.141Z,18.85
2017-06-02T06:03:02.669Z,18.84
2017-06-02T06:03:43.202Z,18.94
2017-06-02T06:04:23.739Z,18.92
2017-06-02T06:05:04.284Z,18.9
2017-06-02T06:05:44.813Z,19.02
2017-06-02T06:06:25.345Z,18.99
2017-06-02T06:07:05.883Z,19.06
2017-06-02T06:07:46.433Z,19.08
2017-06-02T06:08:26.977Z,19.18
2017-06-02T06:09:07.516Z,19.16
2017-06-02T06:09:48.058Z,19.16
2017-06-02T06:10:28.591Z,19.25
2017-06-02T06:11:09.135Z,19.28
2017-06-02T06:11:49.672Z,19.32
2017-06-02T06:12:30.217Z,19.37
2017-06-02T06:13:10.763Z,19.37
2017-06-02T06:13:51.302Z,19.37
2017-06-02T06:14:31.855Z,19.37
2017-06-02T06:15:12.386Z,19.44
2017-06-02T06:15:52.910Z,19.5
2017-06-02T06:16:33.444Z,19.54
2017-06-02T06:17:13.985Z,19.62
2017-06-02T06:17:54.525Z,19.69
2017-06-02T06:18:35.065Z,19.65
2017-06-02T06:19:15.607Z,19.68
2017-06-02T06:19:56.149Z,19.69
2017-06-02T06:20:36.695Z,19.73
2017-06-02T06:21:17.249Z,19.78
2017-06-02T06:21:57.799Z,19.83
2017-06-02T06:22:38.339Z,19.78
2017-06-02T06:23:18.937Z,19.84
2017-06-02T06:23:59.464Z,19.81
2017-06-02T06:24:40.006Z,19.87
2017-06-02T06:25:20.541Z,19.96
2017-06-02T06:26:01.081Z,19.98
2017-06-02T06:26:41.622Z,20.02
2017-06-02T06:27:22.162Z,20.1
2017-06-02T06:28:02.709Z,20.17
2017-06-02T06:28:43.253Z,20.24
2017-06-02T06:29:23.790Z,20.36
2017-06-02T06:30:04.335Z,20.36
2017-06-02T06:30:44.883Z,20.43
2017-06-02T06:31:25.413Z,20.41
2017-06-02T06:32:06.831Z,20.52
2017-06-02T12:10:57.413Z,29.76
2017-06-02T12:11:38.587Z,29.71
2017-06-02T12:12:19.237Z,29.74
2017-06-02T12:12:59.919Z,29.9
2017-06-02T12:13:40.487Z,29.89
2017-06-02T12:14:21.043Z,29.76
2017-06-02T12:15:01.690Z,29.61
2017-06-02T12:15:42.269Z,29.41
2017-06-02T12:16:22.813Z,29.39
2017-06-02T12:17:03.363Z,29.34
2017-06-02T12:17:43.913Z,29.41
2017-06-02T12:18:24.465Z,29.43
2017-06-02T12:19:05.021Z,29.39
2017-06-02T12:19:45.591Z,29.41
2017-06-02T12:20:26.150Z,29.43
2017-06-02T12:21:06.695Z,29.43
2017-06-02T12:21:47.248Z,29.3
2017-06-02T12:22:27.795Z,29.15
2017-06-02T12:23:08.346Z,29.08
2017-06-02T12:23:48.897Z,29.08
2017-06-02T12:24:29.438Z,29.11
2017-06-02T12:25:09.982Z,29.31
2017-06-02T12:25:50.539Z,29.39
2017-06-02T12:26:31.112Z,29.34
2017-06-02T12:27:11.674Z,29.27
2017-06-02T12:27:52.226Z,29.19
2017-06-02T12:28:32.773Z,28.93
2017-06-02T12:29:13.328Z,28.67
2017-06-02T12:29:53.936Z,28.44
2017-06-02T12:30:34.487Z,28.51
2017-06-02T12:31:15.114Z,28.59
2017-06-02T12:31:55.714Z,28.74
2017-06-02T12:32:36.288Z,28.96
2017-06-02T12:33:16.817Z,29.18
2017-06-02T12:33:57.370Z,29.42
2017-06-02T12:34:38.061Z,29.45
2017-06-02T12:35:18.698Z,29.42
2017-06-02T12:35:59.351Z,29.42
2017-06-02T12:36:39.896Z,29.26
2017-06-02T12:37:20.570Z,28.98
2017-06-02T12:38:01.110Z,28.83
2017-06-02T12:38:41.658Z,28.59
2017-06-02T12:39:22.215Z,28.34
2017-06-02T12:40:02.755Z,28.22
2017-06-02T12:40:43.355Z,28.02
2017-06-02T12:41:23.904Z,27.88
2017-06-02T12:42:04.563Z,27.69
2017-06-02T12:42:45.164Z,27.6
2017-06-02T12:43:25.732Z,27.44
2017-06-02T12:44:06.354Z,27.32
2017-06-02T12:44:46.915Z,27.21
2017-06-02T12:45:27.505Z,27.13
2017-06-02T12:46:08.061Z,27
2017-06-02T12:46:48.729Z,26.89
2017-06-02T12:47:29.277Z,26.84
2017-06-02T12:48:09.859Z,26.81
2017-06-02T12:48:50.404Z,26.76
2017-06-02T12:49:31.004Z,26.69
2017-06-02T12:50:11.556Z,26.72
2017-06-02T12:50:52.107Z,26.84
2017-06-02T12:51:32.652Z,27.04
2017-06-02T12:52:13.197Z,27.19
2017-06-02T12:52:53.742Z,27.37
2017-06-02T12:53:34.290Z,27.74
2017-06-02T12:54:14.842Z,27.94
2017-06-02T12:54:55.386Z,28.12
2017-06-02T12:55:35.937Z,28.39
2017-06-02T12:56:16.482Z,28.48
2017-06-02T12:56:57.039Z,28.62
2017-06-02T12:57:37.670Z,28.7
2017-06-02T12:58:18.282Z,28.93
2017-06-02T12:58:58.832Z,28.93
2017-06-02T12:59:39.451Z,29
2017-06-02T13:00:20.004Z,28.98
2017-06-02T13:01:00.583Z,28.93
2017-06-02T13:01:41.191Z,28.86
2017-06-02T13:02:21.734Z,28.74
2017-06-02T13:03:02.330Z,28.56
2017-06-02T13:03:42.872Z,28.46
2017-06-02T13:04:23.411Z,28.3
2017-06-02T13:05:03.959Z,28.21
2017-06-02T13:05:44.505Z,28.17
2017-06-02T13:06:25.057Z,28.06
2017-06-02T13:07:05.609Z,28.18
2017-06-02T13:07:46.160Z,28.21
2017-06-02T13:08:26.721Z,28.31
2017-06-02T13:09:07.336Z,28.4
2017-06-02T13:09:47.910Z,28.49
2017-06-02T13:10:28.454Z,28.64
2017-06-02T13:11:09.064Z,28.67
2017-06-02T13:11:49.614Z,28.71
2017-06-02T13:12:30.826Z,28.7
2017-06-02T13:13:11.466Z,28.71
2017-06-02T13:13:52.016Z,28.67
2017-06-02T13:14:32.550Z,28.59
2017-06-02T13:15:13.137Z,28.52
2017-06-02T13:15:53.672Z,28.39
2017-06-02T13:16:34.232Z,28.39
2017-06-02T13:17:14.779Z,28.29
2017-06-02T13:17:55.340Z,28.29
2017-06-02T13:18:35.892Z,28.18
2017-06-02T13:19:16.441Z,28.06
2017-06-02T13:19:57.163Z,28
2017-06-02T13:20:38.002Z,27.94
2017-06-02T13:21:19.078Z,27.7
2017-06-02T13:21:59.686Z,27.49
2017-06-02T13:22:40.231Z,27.44
2017-06-02T13:23:20.898Z,27.51
2017-06-02T13:24:01.466Z,27.39
2017-06-02T13:24:42.032Z,27.27
2017-06-02T13:25:22.578Z,27.21
2017-06-02T13:26:03.400Z,27.18
2017-06-02T13:26:44.214Z,27.07
2017-06-02T13:27:24.939Z,27.13
2017-06-02T13:28:05.462Z,27.03
2017-06-02T13:28:46.006Z,27
2017-06-02T13:29:26.557Z,27.02
2017-06-02T13:30:07.216Z,27.02
2017-06-02T13:30:48.110Z,26.92
2017-06-02T13:31:28.668Z,26.94
2017-06-02T13:32:09.239Z,26.97
2017-06-02T13:32:49.930Z,26.99
2017-06-02T13:33:31.206Z,27.03
2017-06-02T13:34:11.852Z,27.03
2017-06-02T13:34:52.477Z,27.02
2017-06-02T13:35:33.033Z,27.14
2017-06-02T13:36:13.915Z,27.24
2017-06-02T13:36:54.476Z,27.37
2017-06-02T13:37:35.028Z,27.44
2017-06-02T13:38:15.856Z,27.51
2017-06-02T13:38:56.396Z,27.5
2017-06-02T13:39:37.087Z,27.55
2017-06-02T13:40:17.627Z,27.63
2017-06-02T13:40:58.485Z,27.69
2017-06-02T13:41:39.067Z,27.7
